Time;durP1;ratioP1;P1;durP2;ratioP2;P2;SDS_P1;SDS_P2;PMS_P1;PMS_P2;Temp;Humidity;BMP_temperature;BMP_pressure;BME280_temperature;BME280_humidity;BME280_pressure;Samples;Min_cycle;Max_cycle;Signal;HPM_P1;HPM_P2
2022/05/15 00:00:41;;;;;;;6.30;3.83;;;17.90;87.50;;;18.52;nan;100894.59;5071475;28;20638;-67
2022/05/15 00:03:21;;;;;;;5.60;3.60;;;17.90;85.90;;;18.50;nan;100893.91;5068875;28;20633;-68
2022/05/15 00:05:58;;;;;;;7.37;4.40;;;17.80;86.50;;;18.51;nan;100900.84;5069418;28;20658;-69
2022/05/15 00:08:28;;;;;;;5.30;3.43;;;17.90;86.00;;;18.48;nan;100892.41;5069244;28;20633;-66
2022/05/15 00:10:56;;;;;;;3.40;3.10;;;17.90;87.00;;;18.43;nan;100892.00;5089301;28;21209;-67
2022/05/15 00:13:25;;;;;;;8.53;3.00;;;17.80;87.20;;;18.39;nan;100890.66;5092736;28;21155;-68
2022/05/15 00:15:52;;;;;;;16.23;3.93;;;17.70;86.80;;;18.44;nan;100883.94;5073045;28;20626;-67
2022/05/15 00:18:21;;;;;;;4.80;3.60;;;17.80;86.10;;;18.43;nan;100879.63;5072405;28;20614;-68
2022/05/15 00:20:50;;;;;;;3.67;3.13;;;17.80;84.50;;;18.44;nan;100883.94;5071392;28;21016;-67
2022/05/15 00:23:20;;;;;;;3.73;3.03;;;17.80;84.10;;;18.46;nan;100884.63;5054718;28;20615;-71
2022/05/15 00:25:48;;;;;;;6.00;3.27;;;17.90;83.90;;;18.42;nan;100885.88;5071889;28;20693;-69
2022/05/15 00:28:15;;;;;;;7.60;3.30;;;17.80;83.70;;;18.48;nan;100879.19;5076335;28;20668;-67
2022/05/15 00:30:43;;;;;;;5.53;3.87;;;17.90;84.40;;;18.48;nan;100876.56;5091689;28;20654;-68
2022/05/15 00:33:10;;;;;;;5.20;3.30;;;17.90;84.00;;;18.41;nan;100884.22;5071118;28;21005;-67
2022/05/15 00:35:38;;;;;;;5.20;3.57;;;17.90;83.90;;;18.36;nan;100883.03;5054880;28;20642;-68
2022/05/15 00:38:08;;;;;;;3.87;3.37;;;17.70;85.10;;;18.27;nan;100884.78;5069923;28;20622;-67
2022/05/15 00:40:40;;;;;;;5.67;3.60;;;17.60;85.40;;;18.31;nan;100878.22;5090183;28;20994;-66
2022/05/15 00:43:44;;;;;;;7.17;3.57;;;17.70;85.60;;;18.37;nan;100882.06;5092295;28;21170;-67
2022/05/15 00:46:28;;;;;;;4.83;2.90;;;17.70;85.00;;;18.34;nan;100879.69;5092508;28;20657;-69
2022/05/15 00:48:58;;;;;;;6.47;3.20;;;17.80;84.80;;;18.27;nan;100874.19;5087690;28;20615;-68
2022/05/15 00:51:42;;;;;;;6.73;3.70;;;17.60;85.80;;;18.18;nan;100880.44;5071432;28;20657;-67
2022/05/15 00:54:39;;;;;;;5.90;3.90;;;17.50;87.40;;;18.10;nan;100871.59;5075964;28;20621;-67
2022/05/15 00:57:20;;;;;;;11.00;3.67;;;17.40;87.80;;;18.06;nan;100878.19;5074483;28;21590;-67
2022/05/15 01:00:09;;;;;;;6.00;4.20;;;17.50;88.00;;;17.96;nan;100874.78;5073089;28;20637;-68
2022/05/15 01:02:41;;;;;;;9.80;3.77;;;17.40;89.00;;;17.97;nan;100872.00;5091968;28;21189;-67
2022/05/15 01:05:11;;;;;;;7.70;4.20;;;17.40;89.80;;;18.00;nan;100879.59;5072571;28;20663;-67
2022/05/15 01:07:39;;;;;;;7.20;4.23;;;17.40;89.40;;;17.94;nan;100869.66;5064959;28;20635;-67
2022/05/15 01:10:08;;;;;;;3.53;3.33;;;17.40;89.80;;;17.89;nan;100871.09;5064796;28;20639;-68
2022/05/15 01:12:38;;;;;;;7.93;3.67;;;17.30;90.20;;;17.86;nan;100869.59;5066094;28;20689;-65
2022/05/15 01:15:06;;;;;;;5.10;3.67;;;17.20;90.50;;;17.82;nan;100865.59;5072838;28;20676;-67
2022/05/15 01:17:33;;;;;;;6.50;3.87;;;17.20;90.60;;;17.78;nan;100867.69;5090366;28;20622;-67
2022/05/15 01:20:08;;;;;;;3.90;3.60;;;17.20;90.80;;;17.80;nan;100876.28;5066565;28;21222;-66
2022/05/15 01:22:35;;;;;;;4.20;3.80;;;17.20;90.90;;;17.56;nan;100865.50;5088918;28;20652;-67
2022/05/15 01:25:10;;;;;;;7.50;3.80;;;17.00;91.70;;;17.50;nan;100870.53;5090943;28;20653;-68
2022/05/15 01:27:37;;;;;;;6.30;3.80;;;16.90;92.40;;;17.48;nan;100870.63;5073872;28;20640;-67
2022/05/15 01:30:05;;;;;;;3.97;3.57;;;16.90;92.60;;;17.36;nan;100871.84;5091626;28;20645;-67
2022/05/15 01:32:32;;;;;;;5.97;3.77;;;16.80;93.10;;;17.34;nan;100867.69;5080150;28;20658;-68
2022/05/15 01:34:59;;;;;;;4.73;3.50;;;16.70;93.30;;;17.33;nan;100879.22;5082641;28;20670;-67
2022/05/15 01:37:26;;;;;;;4.77;3.50;;;16.70;93.60;;;17.32;nan;100878.38;5079565;28;20626;-66
2022/05/15 01:39:53;;;;;;;6.23;3.60;;;16.70;93.70;;;17.34;nan;100881.69;5071155;28;21058;-67
2022/05/15 01:42:20;;;;;;;4.73;3.50;;;16.70;93.80;;;17.31;nan;100873.25;5076023;28;20630;-67
2022/05/15 01:44:47;;;;;;;3.87;3.57;;;16.70;94.20;;;17.33;nan;100873.94;5090606;28;20673;-66
2022/05/15 01:47:15;;;;;;;4.30;3.70;;;16.70;94.40;;;17.28;nan;100878.81;5090182;28;20641;-67
2022/05/15 01:49:42;;;;;;;5.13;3.87;;;16.60;94.70;;;17.24;nan;100877.47;5091141;28;20617;-65
2022/05/15 01:52:10;;;;;;;7.43;4.40;;;16.60;95.00;;;17.20;nan;100884.00;5089474;28;20677;-67
2022/05/15 01:54:38;;;;;;;5.37;3.83;;;16.60;95.40;;;17.18;nan;100880.69;5090722;28;20629;-67
2022/05/15 01:57:06;;;;;;;4.63;3.90;;;16.50;95.50;;;17.17;nan;100882.50;5090867;28;20625;-67
2022/05/15 01:59:33;;;;;;;7.80;4.73;;;16.50;95.80;;;17.12;nan;100887.38;5072481;28;21033;-65
2022/05/15 02:02:00;;;;;;;4.43;4.03;;;16.50;96.00;;;17.11;nan;100882.25;5052840;28;20995;-68
2022/05/15 02:04:27;;;;;;;8.23;4.50;;;16.50;96.10;;;17.08;nan;100874.63;5070626;28;20645;-66
2022/05/15 02:06:54;;;;;;;6.13;5.07;;;16.40;96.30;;;17.05;nan;100879.22;5090609;28;20629;-68
2022/05/15 02:09:21;;;;;;;8.00;5.03;;;16.40;96.60;;;17.01;nan;100875.19;5083955;28;20637;-67
2022/05/15 02:11:48;;;;;;;5.73;5.03;;;16.40;96.80;;;17.01;nan;100875.19;5090181;28;20668;-70
2022/05/15 02:14:15;;;;;;;5.27;4.77;;;16.40;97.10;;;16.93;nan;100863.72;5089242;28;20696;-69
2022/05/15 02:16:42;;;;;;;9.70;5.60;;;16.30;97.40;;;16.91;nan;100863.88;5090667;28;20641;-67
2022/05/15 02:19:09;;;;;;;14.63;5.00;;;16.30;97.60;;;16.85;nan;100867.09;5066548;28;20637;-69
2022/05/15 02:21:36;;;;;;;6.03;4.70;;;16.30;98.00;;;16.82;nan;100861.28;5091200;28;20614;-64
2022/05/15 02:24:04;;;;;;;5.47;4.47;;;16.20;98.20;;;16.82;nan;100864.72;5087494;28;20621;-70
2022/05/15 02:26:31;;;;;;;8.03;4.80;;;16.20;98.30;;;16.77;nan;100864.34;5069657;28;20662;-66
2022/05/15 02:28:58;;;;;;;8.37;4.93;;;16.20;98.60;;;16.73;nan;100860.34;5073796;28;20618;-66
2022/05/15 02:31:25;;;;;;;6.33;4.17;;;16.10;98.90;;;16.75;nan;100861.03;5088625;28;20677;-66
2022/05/15 02:33:52;;;;;;;11.13;4.30;;;16.20;99.20;;;16.71;nan;100864.09;5089222;28;20637;-66
2022/05/15 02:36:19;;;;;;;4.93;4.30;;;16.10;99.50;;;16.66;nan;100853.97;5090043;28;20706;-67
2022/05/15 02:38:46;;;;;;;6.30;5.23;;;16.00;99.70;;;16.58;nan;100858.31;5090497;28;20629;-68
2022/05/15 02:41:13;;;;;;;8.97;4.90;;;16.00;99.90;;;16.58;nan;100861.78;5075499;28;20638;-66
2022/05/15 02:43:40;;;;;;;4.83;4.40;;;16.00;99.90;;;16.61;nan;100858.03;5069640;28;20626;-67
2022/05/15 02:46:07;;;;;;;7.10;4.77;;;16.00;99.90;;;16.56;nan;100861.09;5083782;28;20658;-67
2022/05/15 02:51:20;;;;;;;7.47;5.50;;;16.00;99.90;;;16.47;nan;100867.19;5069712;28;20651;-67
2022/05/15 02:53:47;;;;;;;7.57;5.30;;;15.90;99.90;;;16.35;nan;100862.22;5069263;28;20610;-67
2022/05/15 02:56:24;;;;;;;10.23;5.70;;;15.80;99.90;;;16.32;nan;100863.31;5088429;28;21202;-67
2022/05/15 02:58:52;;;;;;;10.67;6.70;;;15.80;99.90;;;16.27;nan;100862.91;5089827;28;20612;-66
2022/05/15 03:01:20;;;;;;;6.80;5.47;;;15.70;99.90;;;16.23;nan;100867.63;5071866;28;20692;-67
2022/05/15 03:03:47;;;;;;;5.93;5.40;;;15.70;99.90;;;16.28;nan;100865.41;5061722;28;20629;-67
2022/05/15 03:06:17;;;;;;;6.73;5.97;;;15.70;99.90;;;16.29;nan;100866.25;5083866;28;20722;-66
2022/05/15 03:08:48;;;;;;;9.57;5.50;;;15.70;99.90;;;16.28;nan;100864.59;5088532;28;20625;-66
2022/05/15 03:11:16;;;;;;;8.97;5.20;;;15.70;99.90;;;16.30;nan;100865.28;5088857;28;20657;-67
2022/05/15 03:13:43;;;;;;;8.13;5.20;;;15.70;99.90;;;16.24;nan;100861.41;5069169;28;20638;-67
2022/05/15 03:16:11;;;;;;;5.37;4.97;;;15.70;99.90;;;16.21;nan;100864.31;5068530;28;21036;-67
2022/05/15 03:18:49;;;;;;;7.30;4.83;;;15.60;99.90;;;16.15;nan;100856.13;5051730;28;20611;-67
2022/05/15 03:21:30;;;;;;;6.30;4.80;;;15.60;99.90;;;16.21;nan;100863.47;5076764;28;20630;-67
2022/05/15 03:24:05;;;;;;;5.77;5.20;;;15.60;99.90;;;16.15;nan;100864.03;5079467;28;21225;-67
2022/05/15 03:26:36;;;;;;;6.63;5.67;;;15.60;99.90;;;16.13;nan;100856.28;5087437;28;20669;-67
2022/05/15 03:29:03;;;;;;;5.63;5.00;;;15.60;99.90;;;16.17;nan;100859.47;5089067;28;20610;-67
2022/05/15 03:31:35;;;;;;;6.67;4.47;;;15.60;99.90;;;16.12;nan;100859.88;5054916;28;20670;-66
2022/05/15 03:34:12;;;;;;;6.73;5.67;;;15.50;99.90;;;16.12;nan;100861.72;5051203;28;20623;-65
2022/05/15 03:36:41;;;;;;;7.47;5.17;;;15.50;99.90;;;16.10;nan;100864.44;5087237;28;20649;-68
2022/05/15 03:39:10;;;;;;;9.90;6.50;;;15.50;99.90;;;16.07;nan;100859.50;5089642;28;20621;-67
2022/05/15 03:41:37;;;;;;;6.10;5.50;;;15.50;99.90;;;16.07;nan;100863.91;5078786;28;21200;-64
2022/05/15 03:44:05;;;;;;;6.00;5.50;;;15.50;99.90;;;16.06;nan;100870.13;5068279;28;20618;-67
2022/05/15 03:46:33;;;;;;;11.43;6.60;;;15.40;99.90;;;16.04;nan;100877.34;5088417;28;21033;-66
2022/05/15 03:49:01;;;;;;;7.73;5.47;;;15.50;99.90;;;15.98;nan;100876.09;5075318;28;20641;-67
2022/05/15 03:51:28;;;;;;;9.20;5.17;;;15.40;99.90;;;16.02;nan;100888.03;5092056;28;21241;-67
2022/05/15 03:53:55;;;;;;;6.20;5.20;;;15.50;99.90;;;16.04;nan;100883.44;5092169;28;20630;-67
2022/05/15 03:56:49;;;;;;;8.20;6.03;;;15.40;99.90;;;16.05;nan;100884.28;5093092;28;20653;-68
2022/05/15 03:59:11;;;;;;;11.60;6.10;;;15.50;99.90;;;16.07;nan;100884.97;5092270;28;20634;-69
2022/05/15 04:01:39;;;;;;;5.60;5.00;;;15.50;99.90;;;16.10;nan;100879.41;5092618;28;20633;-65
2022/05/15 04:04:07;;;;;;;6.17;5.57;;;15.50;99.90;;;16.14;nan;100880.81;5092370;28;20625;-69
2022/05/15 04:06:35;;;;;;;6.63;5.97;;;15.60;99.90;;;16.20;nan;100882.88;5075743;28;20641;-67
2022/05/15 04:09:03;;;;;;;12.47;5.63;;;15.70;99.90;;;16.29;nan;100895.22;5090669;28;20625;-66
2022/05/15 04:11:30;;;;;;;5.90;5.30;;;15.70;99.90;;;16.36;nan;100888.41;5072389;28;20658;-67
2022/05/15 04:13:57;;;;;;;8.53;5.93;;;15.80;99.90;;;16.51;nan;100894.94;5087836;28;20622;-67
2022/05/15 04:16:24;;;;;;;6.93;5.77;;;16.00;99.90;;;16.61;nan;100890.44;5092701;28;21000;-67
2022/05/15 04:18:51;;;;;;;6.50;5.47;;;16.10;99.90;;;16.75;nan;100889.19;5088947;28;20630;-67
2022/05/15 04:21:18;;;;;;;9.27;6.67;;;16.30;99.90;;;16.85;nan;100884.69;5083555;28;20672;-67
2022/05/15 04:23:45;;;;;;;8.13;7.33;;;16.40;99.90;;;16.87;nan;100878.31;5084594;28;21006;-67
2022/05/15 04:26:12;;;;;;;8.60;6.10;;;16.40;99.90;;;17.02;nan;100878.66;5092871;28;20684;-67
2022/05/15 04:28:39;;;;;;;6.20;5.60;;;16.50;99.90;;;17.11;nan;100883.06;5081153;28;20635;-66
2022/05/15 04:31:06;;;;;;;11.77;5.77;;;16.60;99.90;;;17.25;nan;100879.13;5072244;28;20614;-67
2022/05/15 04:33:34;;;;;;;7.17;6.10;;;16.80;99.90;;;17.40;nan;100896.13;5080018;28;20667;-67
2022/05/15 04:36:02;;;;;;;6.50;5.90;;;16.90;99.90;;;17.55;nan;100887.56;5091452;28;20675;-68
2022/05/15 04:38:30;;;;;;;9.87;6.47;;;17.10;99.90;;;17.70;nan;100885.25;5092297;28;20609;-68
2022/05/15 04:40:57;;;;;;;5.87;5.17;;;17.30;99.80;;;17.88;nan;100887.91;5074867;28;20640;-68
2022/05/15 04:43:24;;;;;;;11.70;6.00;;;17.40;99.40;;;18.06;nan;100889.56;5092912;28;20629;-67
2022/05/15 04:45:51;;;;;;;9.30;6.67;;;17.70;98.90;;;18.27;nan;100889.25;5087817;28;21019;-68
2022/05/15 04:48:18;;;;;;;9.50;6.20;;;17.90;98.40;;;18.38;nan;100888.97;5092124;28;20652;-68
2022/05/15 04:50:45;;;;;;;9.30;6.60;;;18.00;97.90;;;18.46;nan;100881.16;5081865;28;21035;-67
2022/05/15 04:53:12;;;;;;;6.60;6.00;;;18.00;97.50;;;18.31;nan;100886.16;5074481;28;20672;-67
2022/05/15 04:55:39;;;;;;;15.10;6.87;;;17.90;97.90;;;18.32;nan;100879.03;5078815;28;21011;-67
2022/05/15 04:58:06;;;;;;;10.03;7.13;;;17.90;98.00;;;18.25;nan;100876.16;5071042;28;20642;-67
2022/05/15 05:00:33;;;;;;;12.00;6.63;;;17.90;97.90;;;18.48;nan;100879.19;5077325;28;20997;-67
2022/05/15 05:03:00;;;;;;;7.60;6.10;;;18.00;97.90;;;18.82;nan;100882.72;5071171;28;20618;-66
2022/05/15 05:05:27;;;;;;;8.13;5.73;;;18.40;97.50;;;19.07;nan;100886.28;5070598;28;20657;-67
2022/05/15 05:07:54;;;;;;;10.63;6.43;;;18.70;96.70;;;19.30;nan;100890.03;5086603;28;20699;-67
2022/05/15 05:10:21;;;;;;;6.80;5.23;;;18.90;96.00;;;19.51;nan;100893.09;5089385;28;20687;-67
2022/05/15 05:12:48;;;;;;;9.53;6.10;;;19.10;95.40;;;19.73;nan;100897.78;5092582;28;20676;-68
2022/05/15 05:15:14;;;;;;;8.37;5.93;;;19.40;95.00;;;19.96;nan;100895.31;5092437;28;20663;-67
2022/05/15 05:17:42;;;;;;;6.90;5.90;;;19.60;94.60;;;20.07;nan;100906.44;5092788;28;20624;-69
2022/05/15 05:20:14;;;;;;;9.37;6.50;;;19.70;94.10;;;20.20;nan;100913.06;5091669;28;20621;-67
2022/05/15 05:22:42;;;;;;;7.90;6.50;;;19.90;93.90;;;20.36;nan;100915.75;5070555;28;21203;-64
2022/05/15 05:25:10;;;;;;;9.40;7.00;;;20.00;93.70;;;20.58;nan;100912.41;5081927;28;21032;-67
2022/05/15 05:27:39;;;;;;;7.23;6.50;;;20.20;93.30;;;20.51;nan;100919.38;5073656;28;20696;-67
2022/05/15 05:30:14;;;;;;;9.10;6.53;;;20.00;93.20;;;20.72;nan;100923.16;5090085;28;20630;-68
2022/05/15 05:32:41;;;;;;;10.93;6.37;;;20.30;93.00;;;21.07;nan;100927.25;5091360;28;20653;-67
2022/05/15 05:35:09;;;;;;;20.53;11.30;;;20.70;92.50;;;21.41;nan;100929.59;5089862;28;20706;-70
2022/05/15 05:37:36;;;;;;;12.90;6.13;;;21.10;91.30;;;21.88;nan;100926.88;5091875;28;20617;-68
2022/05/15 05:40:04;;;;;;;8.43;6.50;;;21.60;90.50;;;22.11;nan;100925.06;5083336;28;20638;-67
2022/05/15 05:42:31;;;;;;;11.67;6.37;;;21.80;89.20;;;22.31;nan;100929.72;5081368;28;20641;-66
2022/05/15 05:44:58;;;;;;;8.20;7.07;;;22.00;88.40;;;22.29;nan;100928.25;5090155;28;21058;-68
2022/05/15 05:47:27;;;;;;;8.87;7.07;;;21.90;87.30;;;22.39;nan;100927.00;5080872;28;20689;-67
2022/05/15 05:49:55;;;;;;;7.53;6.50;;;21.90;87.00;;;22.67;nan;100923.78;5070393;28;21201;-69
2022/05/15 05:52:26;;;;;;;6.90;5.67;;;22.30;85.60;;;23.14;nan;100930.44;5077455;28;21220;-67
2022/05/15 05:54:53;;;;;;;7.57;6.30;;;22.70;84.10;;;23.66;nan;100930.28;5091036;28;21222;-68
2022/05/15 05:57:21;;;;;;;7.40;6.23;;;23.30;81.40;;;24.15;nan;100927.75;5088574;28;20953;-67
2022/05/15 05:59:47;;;;;;;6.57;5.97;;;23.90;79.10;;;24.40;nan;100926.34;5090404;28;21211;-67
2022/05/15 06:02:14;;;;;;;12.20;5.80;;;24.10;77.10;;;25.06;nan;100925.00;5086928;28;20641;-67
2022/05/15 06:04:42;;;;;;;6.83;5.37;;;24.80;75.00;;;25.74;nan;100925.91;5072252;28;20643;-68
2022/05/15 06:07:16;;;;;;;7.17;6.07;;;25.50;72.40;;;26.41;nan;100923.97;5085300;28;20675;-69
2022/05/15 06:09:46;;;;;;;6.50;5.90;;;26.20;69.50;;;26.94;nan;100918.59;5080945;28;20631;-70
2022/05/15 06:12:17;;;;;;;7.17;6.23;;;26.80;67.80;;;27.27;nan;100928.16;5084311;28;20669;-68
2022/05/15 06:14:44;;;;;;;8.80;5.80;;;27.10;65.40;;;27.75;nan;100933.16;5081355;28;20634;-67
2022/05/15 06:17:11;;;;;;;7.10;5.10;;;27.60;64.20;;;28.26;nan;100936.56;5089740;28;20625;-68
2022/05/15 06:19:40;;;;;;;7.50;5.40;;;28.10;62.20;;;28.54;nan;100928.06;5084531;28;20634;-67
2022/05/15 06:22:07;;;;;;;9.60;6.13;;;28.40;60.50;;;28.99;nan;100921.44;5083375;28;20637;-67
2022/05/15 06:24:34;;;;;;;11.10;6.20;;;28.80;59.90;;;29.49;nan;100920.25;5087648;28;21024;-67
2022/05/15 06:27:03;;;;;;;7.20;5.30;;;29.30;59.10;;;29.92;nan;100938.94;5090218;28;20645;-70
2022/05/15 06:29:31;;;;;;;6.10;5.60;;;29.80;57.80;;;30.65;nan;100934.84;5082875;28;20631;-67
2022/05/15 06:31:59;;;;;;;5.83;5.30;;;30.30;56.90;;;30.74;nan;100929.09;5051547;28;21262;-67
2022/05/15 06:34:26;;;;;;;4.80;4.37;;;30.40;54.90;;;31.37;nan;100935.34;5073190;28;21205;-67
2022/05/15 06:36:53;;;;;;;4.93;4.40;;;31.00;54.30;;;32.30;nan;100934.97;5088944;28;21221;-70
2022/05/15 06:39:21;;;;;;;5.87;5.00;;;32.00;52.70;;;32.99;nan;100931.75;5071010;28;20618;-67
2022/05/15 06:41:50;;;;;;;7.57;4.67;;;32.80;51.30;;;33.93;nan;100926.91;5072022;28;20735;-68
2022/05/15 06:44:18;;;;;;;5.83;5.10;;;33.60;49.40;;;34.75;nan;100928.16;5088602;28;20614;-68
2022/05/15 06:46:46;;;;;;;5.00;4.50;;;34.40;47.70;;;35.33;nan;100934.44;5073577;28;20673;-67
2022/05/15 06:49:15;;;;;;;5.47;4.90;;;35.00;46.80;;;35.56;nan;100933.97;5083590;28;21178;-67
2022/05/15 06:51:43;;;;;;;7.37;5.10;;;35.30;46.20;;;35.67;nan;100930.22;5071331;28;20640;-70
2022/05/15 06:54:10;;;;;;;6.10;4.77;;;35.30;45.70;;;35.95;nan;100927.00;5086864;28;20661;-70
2022/05/15 06:59:22;;;;;;;5.33;4.83;;;35.80;45.30;;;36.91;nan;100932.41;5068987;28;20611;-68
2022/05/15 07:01:49;;;;;;;5.57;5.07;;;36.50;44.60;;;37.40;nan;100935.25;5051422;28;20672;-68
2022/05/15 07:04:16;;;;;;;5.00;4.50;;;36.90;43.90;;;38.40;nan;100940.00;5070070;28;20622;-70
2022/05/15 07:06:43;;;;;;;4.63;4.30;;;38.00;42.80;;;39.54;nan;100944.44;5076532;28;20662;-67
2022/05/15 07:09:10;;;;;;;10.83;4.20;;;39.10;41.70;;;40.20;nan;100947.03;5072617;28;20637;-69
2022/05/15 07:11:39;;;;;;;10.37;4.43;;;39.80;41.10;;;40.61;nan;100943.59;5088750;28;20981;-69
2022/05/15 07:14:06;;;;;;;5.10;4.70;;;40.20;40.30;;;40.65;nan;100941.88;5070984;28;21037;-68
2022/05/15 07:16:33;;;;;;;6.43;5.10;;;40.40;39.90;;;39.52;nan;100937.66;5089100;28;20645;-69
2022/05/15 07:18:59;;;;;;;4.60;4.20;;;39.30;40.00;;;39.36;nan;100937.03;5089693;28;20618;-69
2022/05/15 07:21:29;;;;;;;5.23;4.73;;;39.00;40.20;;;39.11;nan;100934.63;5085108;28;20630;-68
2022/05/15 07:23:56;;;;;;;8.53;3.90;;;38.70;40.10;;;38.93;nan;100929.94;5093196;28;20626;-67
2022/05/15 07:26:24;;;;;;;5.00;4.00;;;38.70;39.70;;;38.63;nan;100932.97;5059268;28;20676;-68
2022/05/15 07:28:51;;;;;;;4.73;4.07;;;38.30;39.50;;;38.87;nan;100930.28;5084244;28;20922;-69
2022/05/15 07:31:19;;;;;;;4.50;4.13;;;38.50;39.80;;;39.61;nan;100929.63;5091696;28;20612;-67
2022/05/15 07:33:49;;;;;;;4.03;3.63;;;39.30;39.40;;;39.84;nan;100931.47;5071279;28;20670;-67
2022/05/15 07:36:17;;;;;;;4.93;3.90;;;39.40;39.10;;;40.59;nan;100932.97;5092700;28;20698;-69
2022/05/15 07:38:44;;;;;;;4.73;4.43;;;40.30;38.40;;;40.82;nan;100942.13;5091096;28;21343;-69
2022/05/15 07:41:11;;;;;;;4.20;3.90;;;40.50;38.40;;;40.89;nan;100935.13;5092595;28;20618;-68
2022/05/15 07:43:39;;;;;;;4.13;3.73;;;40.90;38.30;;;41.52;nan;100942.56;5072458;28;20664;-65
2022/05/15 07:46:09;;;;;;;3.80;3.50;;;41.20;38.10;;;41.34;nan;100940.81;5085733;28;20710;-66
2022/05/15 07:48:36;;;;;;;4.00;3.70;;;41.10;37.20;;;40.86;nan;100941.22;5092300;28;20610;-66
2022/05/15 07:51:04;;;;;;;3.93;3.70;;;40.50;37.20;;;40.47;nan;100938.09;5090426;28;20683;-66
2022/05/15 07:53:31;;;;;;;4.43;3.80;;;40.20;37.90;;;40.09;nan;100936.53;5093182;28;20665;-68
2022/05/15 07:56:01;;;;;;;3.90;3.70;;;39.90;38.30;;;40.14;nan;100928.28;5088221;28;21075;-66
2022/05/15 07:58:28;;;;;;;3.73;3.40;;;39.90;38.50;;;40.57;nan;100929.69;5093070;28;20614;-71
2022/05/15 08:00:56;;;;;;;3.47;3.27;;;40.30;37.80;;;40.97;nan;100926.22;5092999;28;21210;-69
2022/05/15 08:03:24;;;;;;;3.70;3.50;;;40.80;37.20;;;41.31;nan;100924.97;5075747;28;21040;-69
2022/05/15 08:08:39;;;;;;;3.10;2.90;;;41.00;36.60;;;41.66;nan;100924.19;5083046;28;20688;-70
2022/05/15 08:11:07;;;;;;;4.00;3.50;;;41.50;36.40;;;42.02;nan;100916.72;5091888;28;20637;-70
2022/05/15 08:13:34;;;;;;;3.50;3.30;;;42.00;36.20;;;42.50;nan;100927.06;5057910;28;21241;-72
2022/05/15 08:16:01;;;;;;;2.80;2.60;;;42.30;35.90;;;43.22;nan;100923.63;5091155;28;21267;-70
2022/05/15 08:24:05;;;;;;;3.27;3.07;;;43.80;34.80;;;44.36;nan;100919.41;5079200;28;20638;-70
2022/05/15 08:26:32;;;;;;;2.93;2.60;;;44.20;34.40;;;44.90;nan;100927.94;5092581;28;21283;-71
2022/05/15 08:29:03;;;;;;;2.90;2.80;;;44.80;34.30;;;44.53;nan;100915.81;5083052;28;20635;-69
2022/05/15 08:31:32;;;;;;;3.60;3.20;;;44.50;34.30;;;44.29;nan;100910.03;5074327;28;20678;-69
2022/05/15 08:34:02;;;;;;;3.20;3.10;;;44.20;34.50;;;45.01;nan;100910.72;5091054;28;20661;-68
2022/05/15 08:36:33;;;;;;;3.17;3.03;;;44.90;34.40;;;45.07;nan;100911.31;5092030;28;20730;-68
2022/05/15 08:39:04;;;;;;;3.07;2.97;;;45.10;34.20;;;44.94;nan;100907.69;5092049;28;20998;-68
2022/05/15 08:42:05;;;;;;;3.70;3.40;;;44.80;34.30;;;44.76;nan;100894.31;5055594;28;20695;-68
2022/05/15 08:44:37;;;;;;;3.20;3.00;;;44.80;33.90;;;45.00;nan;100900.81;5071845;28;20618;-68
2022/05/15 08:47:04;;;;;;;3.27;3.00;;;45.10;33.80;;;45.91;nan;100902.75;5074862;28;20637;-68
2022/05/15 08:49:42;;;;;;;3.53;3.23;;;45.80;33.80;;;45.71;nan;100898.88;5090476;28;20617;-68
2022/05/15 08:52:11;;;;;;;3.47;3.00;;;46.00;33.60;;;47.12;nan;100906.47;5086709;28;21428;-74
2022/05/15 08:54:56;;;;;;;2.90;2.50;;;47.00;33.60;;;47.89;nan;100909.94;5056501;28;21269;-66
2022/05/15 08:58:01;;;;;;;3.17;2.97;;;47.90;32.10;;;48.80;nan;100911.56;5090871;28;21194;-70
2022/05/15 09:00:55;;;;;;;2.83;2.73;;;48.90;32.00;;;49.34;nan;100911.59;5090047;28;20633;-67
2022/05/15 09:03:32;;;;;;;3.13;3.00;;;49.20;31.70;;;49.70;nan;100909.22;5073197;28;20622;-66
2022/05/15 09:06:35;;;;;;;3.37;3.07;;;49.70;31.20;;;50.46;nan;100911.03;5087255;28;21213;-67
2022/05/15 09:09:30;;;;;;;2.93;2.77;;;50.40;30.90;;;51.20;nan;100903.06;5075327;28;20636;-67
2022/05/15 09:12:18;;;;;;;2.70;2.60;;;51.10;30.90;;;51.55;nan;100906.31;5087288;28;20990;-68
2022/05/15 09:15:27;;;;;;;3.47;3.30;;;51.60;30.90;;;51.56;nan;100907.91;5049876;28;20670;-67
2022/05/15 09:18:05;;;;;;;3.60;3.47;;;51.50;30.70;;;52.08;nan;100901.31;5088670;28;20628;-69
2022/05/15 09:21:07;;;;;;;3.10;2.90;;;52.00;30.50;;;52.16;nan;100902.19;5084318;28;20632;-68
2022/05/15 09:23:43;;;;;;;3.60;3.50;;;52.10;30.30;;;51.94;nan;100894.81;5090697;28;20624;-71
2022/05/15 09:26:42;;;;;;;2.80;2.80;;;52.00;30.50;;;51.14;nan;100896.19;5070289;28;20665;-69
2022/05/15 09:29:28;;;;;;;3.47;3.17;;;51.40;30.50;;;50.50;nan;100886.06;5071506;28;20636;-68
2022/05/15 09:31:55;;;;;;;3.70;3.40;;;50.50;31.00;;;50.07;nan;100881.00;5070646;28;20637;-68
2022/05/15 09:34:30;;;;;;;3.70;3.43;;;50.00;31.10;;;50.25;nan;100882.09;5091204;28;20637;-66
2022/05/15 09:40:07;;;;;;;3.37;3.17;;;50.80;31.00;;;51.53;nan;100871.69;5062525;28;20609;-67
2022/05/15 09:45:27;;;;;;;3.70;3.40;;;51.40;30.40;;;51.86;nan;100868.91;5087947;28;20723;-69
2022/05/15 09:47:54;;;;;;;4.13;3.83;;;51.90;30.30;;;52.29;nan;100876.44;5075032;28;20636;-68
2022/05/15 09:50:50;;;;;;;3.67;3.20;;;52.20;30.20;;;51.98;nan;100868.63;5089965;28;20837;-69
2022/05/15 09:53:44;;;;;;;3.20;2.93;;;52.10;30.30;;;51.90;nan;100864.16;5071946;28;20666;-69
2022/05/15 09:56:20;;;;;;;2.83;2.73;;;52.10;30.10;;;51.65;nan;100854.75;5037778;28;20658;-69
2022/05/15 09:58:52;;;;;;;3.00;2.80;;;51.70;30.00;;;50.22;nan;100846.78;5070243;28;20633;-71
2022/05/15 10:01:25;;;;;;;3.40;3.20;;;50.20;30.40;;;49.99;nan;100862.63;5087185;28;20606;-70
2022/05/15 10:03:57;;;;;;;3.27;3.10;;;50.00;31.00;;;50.16;nan;100862.09;5080597;28;20662;-68
2022/05/15 10:06:30;;;;;;;3.00;2.90;;;50.20;30.70;;;49.35;nan;100855.78;5055668;28;21278;-74
2022/05/15 10:09:26;;;;;;;3.37;3.13;;;49.70;30.60;;;47.73;nan;100837.97;5069759;28;20638;-72
2022/05/15 10:12:16;;;;;;;3.20;3.00;;;48.30;31.30;;;47.51;nan;100844.91;5070652;28;20630;-68
2022/05/15 10:14:51;;;;;;;3.30;3.10;;;47.60;31.50;;;45.95;nan;100843.03;5087874;28;20670;-68
2022/05/15 10:17:27;;;;;;;3.27;3.07;;;46.00;32.00;;;44.83;nan;100834.06;5065494;28;20637;-69
2022/05/15 10:20:17;;;;;;;3.73;3.40;;;44.60;32.70;;;42.74;nan;100824.03;5055542;28;21038;-68
2022/05/15 10:23:10;;;;;;;2.97;2.87;;;42.30;33.40;;;40.86;nan;100818.06;5071830;28;21019;-70
2022/05/15 10:25:48;;;;;;;3.57;3.27;;;40.30;34.80;;;39.02;nan;100807.28;5070036;28;20654;-72
2022/05/15 10:28:27;;;;;;;3.40;3.10;;;38.40;36.50;;;37.24;nan;100806.56;5078441;28;20634;-69
2022/05/15 10:31:06;;;;;;;3.73;3.50;;;36.50;38.10;;;35.99;nan;100805.91;5077073;28;20644;-69
2022/05/15 10:33:49;;;;;;;3.53;3.23;;;35.10;38.50;;;34.78;nan;100794.78;5072543;28;20657;-69
2022/05/15 10:36:27;;;;;;;3.13;2.90;;;33.90;39.70;;;34.07;nan;100788.19;5072969;28;20700;-68
2022/05/15 10:39:05;;;;;;;2.90;2.73;;;33.10;40.90;;;33.33;nan;100779.09;5091638;28;20675;-68
2022/05/15 10:42:20;;;;;;;5.67;3.23;;;32.40;41.60;;;32.91;nan;100772.69;5090654;28;21196;-68
2022/05/15 10:45:35;;;;;;;4.73;3.13;;;31.90;42.10;;;32.21;nan;100774.44;5091022;28;20645;-72
2022/05/15 10:48:22;;;;;;;5.30;4.80;;;31.30;42.80;;;31.92;nan;100774.53;5070255;28;20633;-67
2022/05/15 10:51:05;;;;;;;4.10;3.70;;;31.00;43.70;;;31.67;nan;100776.81;5089285;28;20650;-68
2022/05/15 10:59:43;;;;;;;6.63;2.57;;;30.00;45.00;;;30.72;nan;100756.97;5090239;28;20625;-69
2022/05/15 11:02:54;;;;;;;3.20;3.00;;;29.80;45.10;;;30.56;nan;100746.94;5075425;28;20625;-69
2022/05/15 11:05:53;;;;;;;2.90;2.70;;;29.60;44.80;;;30.29;nan;100743.91;5070148;28;21054;-69
2022/05/15 11:08:46;;;;;;;3.57;3.03;;;29.40;44.70;;;30.11;nan;100740.53;5065173;28;20639;-69
2022/05/15 11:11:32;;;;;;;3.50;2.80;;;29.20;46.00;;;29.77;nan;100737.59;5052948;28;20606;-69